Aviation Digital Data Service (ADDS)

Output produced by METARs form (1904 UTC 20 April 2014)
found at http://aviationweather.gov/adds/metars/
 
KALB 201735Z 2018/2118 18008KT P6SM SCT250 
     FM210100 17003KT P6SM BKN200 
     FM211500 17006KT P6SM BKN200